Time;durP1;ratioP1;P1;durP2;ratioP2;P2;SDS_P1;SDS_P2;PMS_P1;PMS_P2;Temp;Humidity;BMP_temperature;BMP_pressure;BME280_temperature;BME280_humidity;BME280_pressure;Samples;Min_cycle;Max_cycle;Signal;HPM_P1;HPM_P2
2022/03/12 00:00:29;;;;;;;7.80;5.00;;;0.10;57.20;;;;;;4996977;28;20022;-33
2022/03/12 00:02:55;;;;;;;;;;;0.00;58.00;;;;;;5005588;28;20053;-34
2022/03/12 00:05:21;;;;;;;8.32;4.32;;;0.00;57.80;;;;;;5005111;28;19910;-34
2022/03/12 00:07:47;;;;;;;7.32;4.18;;;0.00;57.70;;;;;;5003403;28;20048;-34
2022/03/12 00:10:13;;;;;;;7.68;3.92;;;-0.10;58.00;;;;;;5001317;28;20367;-35
2022/03/12 00:12:40;;;;;;;8.73;5.30;;;-0.10;58.40;;;;;;5005787;28;20034;-33
2022/03/12 00:15:09;;;;;;;9.02;5.15;;;-0.10;58.40;;;;;;5000658;28;20041;-33
2022/03/12 00:17:36;;;;;;;10.23;4.63;;;-0.10;59.50;;;;;;5003575;28;20041;-35
2022/03/12 00:20:12;;;;;;;10.52;4.93;;;-0.30;59.20;;;;;;5002025;28;20052;-34
2022/03/12 00:22:44;;;;;;;6.57;4.72;;;-0.40;61.00;;;;;;5006111;28;20474;-34
2022/03/12 00:25:10;;;;;;;5.43;4.57;;;-0.40;60.70;;;;;;5002627;28;20420;-33
2022/03/12 00:27:39;;;;;;;8.05;3.72;;;-0.40;60.30;;;;;;5009508;28;20029;-34
2022/03/12 00:30:06;;;;;;;9.60;5.05;;;-0.40;60.20;;;;;;5005109;28;20517;-33
2022/03/12 00:32:35;;;;;;;12.90;5.70;;;-0.40;60.60;;;;;;5005095;28;20045;-34
2022/03/12 00:35:02;;;;;;;7.20;5.63;;;-0.50;61.20;;;;;;5005586;28;20030;-33
2022/03/12 00:37:27;;;;;;;9.15;4.80;;;-0.60;62.70;;;;;;5004848;28;20034;-34
2022/03/12 00:39:53;;;;;;;7.93;4.30;;;-0.60;62.90;;;;;;5007970;28;20550;-34
2022/03/12 00:42:19;;;;;;;5.82;4.18;;;-0.60;61.80;;;;;;5009869;28;20490;-34
2022/03/12 00:44:44;;;;;;;5.57;3.33;;;-0.60;62.00;;;;;;5007005;28;20022;-33
2022/03/12 00:47:10;;;;;;;5.78;4.45;;;-0.60;62.10;;;;;;5009626;28;20053;-34
2022/03/12 00:49:35;;;;;;;7.65;4.18;;;-0.60;62.70;;;;;;5007460;28;20061;-33
2022/03/12 00:52:01;;;;;;;7.07;4.45;;;-0.60;63.30;;;;;;5010248;28;20679;-34
2022/03/12 00:54:27;;;;;;;7.95;4.78;;;-0.70;62.80;;;;;;5007207;28;20629;-35
2022/03/12 00:56:52;;;;;;;10.93;5.00;;;-0.70;63.00;;;;;;5002575;28;20025;-35
2022/03/12 00:59:18;;;;;;;5.32;3.58;;;-0.70;62.60;;;;;;5003090;28;20061;-34
2022/03/12 01:01:43;;;;;;;7.78;4.05;;;-0.50;62.10;;;;;;5007449;28;20030;-34
2022/03/12 01:04:09;;;;;;;5.25;3.85;;;-0.30;60.50;;;;;;5009351;28;20084;-34
2022/03/12 01:06:37;;;;;;;7.20;4.65;;;-0.20;59.80;;;;;;5005773;28;20026;-34
2022/03/12 01:09:02;;;;;;;8.60;4.30;;;-0.10;58.80;;;;;;5008685;28;20024;-33
2022/03/12 01:11:29;;;;;;;4.57;4.00;;;-0.10;58.90;;;;;;5007872;28;20112;-33
2022/03/12 01:13:55;;;;;;;5.82;3.55;;;0.00;58.80;;;;;;5004156;28;20112;-34
2022/03/12 01:16:21;;;;;;;9.23;4.97;;;0.10;59.00;;;;;;5005831;28;20017;-34
2022/03/12 01:18:47;;;;;;;8.65;4.93;;;0.00;58.90;;;;;;5005191;28;20051;-34
2022/03/12 01:21:17;;;;;;;5.15;4.40;;;-0.10;59.20;;;;;;5008780;28;20030;-34
2022/03/12 01:23:46;;;;;;;6.80;4.60;;;0.00;59.50;;;;;;5004757;28;20100;-34
2022/03/12 01:26:12;;;;;;;8.32;4.32;;;0.10;58.90;;;;;;5000392;28;20483;-34
2022/03/12 01:28:38;;;;;;;6.20;4.30;;;0.10;57.70;;;;;;4999298;28;20390;-34
2022/03/12 01:31:04;;;;;;;7.13;4.07;;;-0.10;59.90;;;;;;4997911;28;20037;-34
2022/03/12 01:33:30;;;;;;;8.98;4.20;;;0.00;59.70;;;;;;5001852;28;20044;-34
2022/03/12 01:35:57;;;;;;;5.50;3.85;;;0.10;60.20;;;;;;4999595;28;20030;-34
2022/03/12 01:38:35;;;;;;;6.22;4.63;;;-0.20;60.40;;;;;;4997717;28;20041;-34
2022/03/12 01:41:03;;;;;;;7.47;4.72;;;-0.30;61.60;;;;;;4998611;28;20113;-34
2022/03/12 01:43:31;;;;;;;6.60;4.60;;;-0.50;63.70;;;;;;5002090;28;20454;-34
2022/03/12 01:46:00;;;;;;;7.55;5.30;;;-0.60;63.80;;;;;;5002510;28;20034;-33
2022/03/12 01:48:26;;;;;;;6.88;4.68;;;-0.80;65.30;;;;;;5008020;28;20057;-34
2022/03/12 01:50:52;;;;;;;5.18;3.85;;;-0.70;65.30;;;;;;5001916;28;20455;-33
2022/03/12 01:53:18;;;;;;;4.80;3.97;;;-0.80;66.20;;;;;;5007457;28;20357;-34
2022/03/12 01:55:43;;;;;;;6.10;3.95;;;-0.80;65.40;;;;;;4993035;28;20025;-33
2022/03/12 01:58:10;;;;;;;9.52;5.43;;;-0.90;65.70;;;;;;5003216;28;20026;-33
2022/03/12 02:00:48;;;;;;;3.88;3.35;;;-0.80;65.40;;;;;;5001803;28;20038;-37
2022/03/12 02:03:18;;;;;;;6.97;3.95;;;-0.80;65.50;;;;;;5003964;28;20031;-37
2022/03/12 02:05:44;;;;;;;9.95;4.60;;;-0.70;64.80;;;;;;5007406;28;20076;-36
2022/03/12 02:08:14;;;;;;;8.65;4.03;;;-0.50;63.60;;;;;;5005654;28;20044;-38
2022/03/12 02:10:44;;;;;;;7.78;4.10;;;-0.50;63.70;;;;;;5001501;28;20121;-36
2022/03/12 02:13:12;;;;;;;6.85;3.85;;;-0.50;63.00;;;;;;5005829;28;20038;-37
2022/03/12 02:15:38;;;;;;;7.18;4.47;;;-0.70;63.90;;;;;;5004315;28;20410;-37
2022/03/12 02:18:04;;;;;;;5.95;3.90;;;-0.80;65.20;;;;;;4974719;28;20042;-36
2022/03/12 02:20:31;;;;;;;7.47;4.45;;;-0.80;65.40;;;;;;5000899;28;20018;-39
2022/03/12 02:22:59;;;;;;;6.00;4.72;;;-0.90;65.20;;;;;;5002897;28;20391;-36
2022/03/12 02:25:30;;;;;;;7.43;4.85;;;-0.70;64.60;;;;;;5005959;28;20022;-39
2022/03/12 02:27:58;;;;;;;4.18;3.35;;;-0.70;63.60;;;;;;5006976;28;20137;-36
2022/03/12 02:30:43;;;;;;;7.47;4.35;;;-0.70;64.10;;;;;;5002803;28;20124;-38
2022/03/12 02:33:11;;;;;;;6.65;3.70;;;-0.60;64.50;;;;;;5006730;28;20034;-37
2022/03/12 02:35:37;;;;;;;6.10;4.18;;;-0.70;65.40;;;;;;5002322;28;20038;-37
2022/03/12 02:38:04;;;;;;;6.00;4.03;;;-0.90;66.40;;;;;;5004040;28;20443;-37
2022/03/12 02:40:32;;;;;;;6.22;4.55;;;-0.80;66.10;;;;;;5006334;28;20455;-37
2022/03/12 02:42:58;;;;;;;7.32;4.60;;;-0.80;66.00;;;;;;4984160;28;20496;-39
2022/03/12 02:45:26;;;;;;;6.47;3.53;;;-0.70;65.80;;;;;;5005814;28;20096;-37
2022/03/12 02:47:54;;;;;;;5.32;4.25;;;-0.80;66.00;;;;;;5003981;28;20403;-39
2022/03/12 02:50:21;;;;;;;9.85;4.32;;;-0.80;65.80;;;;;;5005935;28;20034;-36
2022/03/12 02:52:47;;;;;;;4.15;3.63;;;-0.70;64.80;;;;;;4998430;28;20026;-36
2022/03/12 02:55:17;;;;;;;8.23;5.03;;;-0.60;64.50;;;;;;5007528;28;20105;-37
2022/03/12 02:57:48;;;;;;;7.45;3.72;;;-0.50;63.30;;;;;;5005567;28;20038;-39
2022/03/12 03:00:16;;;;;;;7.03;4.05;;;-0.50;63.30;;;;;;4984369;28;20022;-38
2022/03/12 03:02:51;;;;;;;10.43;4.32;;;-0.40;64.50;;;;;;5001130;28;20052;-37
2022/03/12 03:05:20;;;;;;;9.13;4.00;;;-0.40;65.40;;;;;;4983775;28;20035;-38
2022/03/12 03:07:46;;;;;;;4.57;3.50;;;-0.40;64.60;;;;;;5004155;28;20122;-36
2022/03/12 03:10:43;;;;;;;4.93;4.43;;;-0.40;63.60;;;;;;5005903;28;20387;-37
2022/03/12 03:13:16;;;;;;;4.10;3.38;;;-0.30;63.70;;;;;;4968426;28;20033;-37
2022/03/12 03:15:49;;;;;;;7.88;4.30;;;-0.50;64.10;;;;;;4985997;28;20034;-39
2022/03/12 03:18:17;;;;;;;4.85;3.08;;;-0.50;64.30;;;;;;4985127;28;20053;-36
2022/03/12 03:20:44;;;;;;;10.02;5.13;;;-0.50;63.80;;;;;;4980132;28;20062;-37
2022/03/12 03:23:11;;;;;;;5.18;3.70;;;-0.50;63.90;;;;;;4981579;28;20759;-37
2022/03/12 03:25:37;;;;;;;7.38;4.03;;;-0.50;64.20;;;;;;4966910;28;20046;-40
2022/03/12 03:28:05;;;;;;;6.03;3.80;;;-0.50;64.10;;;;;;4984808;28;20030;-36
2022/03/12 03:30:34;;;;;;;7.97;3.88;;;-0.50;64.50;;;;;;4984113;28;20149;-39
2022/03/12 03:33:01;;;;;;;5.28;3.65;;;-0.60;64.30;;;;;;4984091;28;20030;-36
2022/03/12 03:35:27;;;;;;;6.00;3.88;;;-0.70;64.80;;;;;;4976421;28;20131;-39
2022/03/12 03:37:53;;;;;;;4.07;3.70;;;-0.60;64.60;;;;;;4988647;28;20125;-36
2022/03/12 03:40:19;;;;;;;6.32;4.07;;;-0.50;64.20;;;;;;4984571;28;20038;-37
2022/03/12 03:42:45;;;;;;;5.57;4.05;;;-0.50;64.10;;;;;;4982805;28;20026;-37
2022/03/12 03:45:21;;;;;;;4.38;3.20;;;-0.50;64.60;;;;;;4990492;28;20027;-37
2022/03/12 03:47:47;;;;;;;6.90;4.50;;;-0.40;64.10;;;;;;4986508;28;20030;-36
2022/03/12 03:50:13;;;;;;;7.15;4.13;;;-0.40;65.30;;;;;;4991588;28;20038;-37
2022/03/12 03:52:39;;;;;;;6.90;4.05;;;-0.40;64.70;;;;;;4979309;28;20038;-37
2022/03/12 03:55:05;;;;;;;7.00;4.82;;;-0.40;63.80;;;;;;4984485;28;20034;-38
2022/03/12 03:57:31;;;;;;;8.55;3.78;;;-0.40;64.60;;;;;;4983789;28;20041;-39
2022/03/12 03:59:57;;;;;;;5.90;3.22;;;-0.40;64.00;;;;;;4980218;28;20031;-36
2022/03/12 04:02:23;;;;;;;7.03;4.53;;;-0.40;63.20;;;;;;4990963;28;20408;-36
2022/03/12 04:04:49;;;;;;;8.98;4.22;;;-0.40;63.10;;;;;;4986027;28;20037;-37
2022/03/12 04:07:15;;;;;;;5.88;4.15;;;-0.40;63.60;;;;;;4986120;28;20035;-37
2022/03/12 04:09:41;;;;;;;4.97;4.15;;;-0.40;63.40;;;;;;4984220;28;20550;-37
2022/03/12 04:12:08;;;;;;;8.48;3.97;;;-0.40;63.90;;;;;;4981482;28;20039;-38
2022/03/12 04:14:33;;;;;;;6.82;4.32;;;-0.40;63.60;;;;;;4981962;28;20030;-37
2022/03/12 04:17:00;;;;;;;7.55;4.43;;;-0.40;65.10;;;;;;4985221;28;20045;-37
2022/03/12 04:19:30;;;;;;;8.02;3.65;;;-0.40;65.00;;;;;;4996579;28;20034;-37
2022/03/12 04:21:57;;;;;;;5.50;4.70;;;-0.40;65.40;;;;;;4997576;28;20080;-37
2022/03/12 04:24:24;;;;;;;8.68;4.05;;;-0.30;65.20;;;;;;4982952;28;21679;-38
2022/03/12 04:26:50;;;;;;;8.07;4.03;;;-0.30;65.90;;;;;;5005951;28;20478;-36
2022/03/12 04:29:18;;;;;;;5.70;4.07;;;-0.40;65.90;;;;;;4998770;28;20025;-39
2022/03/12 04:31:49;;;;;;;9.20;3.90;;;-0.40;65.80;;;;;;5006372;28;20659;-39
2022/03/12 04:34:16;;;;;;;7.25;4.22;;;-0.40;66.80;;;;;;4998535;28;20029;-39
2022/03/12 04:36:42;;;;;;;5.28;3.80;;;-0.50;67.90;;;;;;5004202;28;20186;-36
2022/03/12 04:39:10;;;;;;;6.72;3.67;;;-0.50;68.60;;;;;;4980230;28;20027;-37
2022/03/12 04:41:39;;;;;;;7.55;4.70;;;-0.50;68.60;;;;;;5002147;28;20030;-36
2022/03/12 04:44:07;;;;;;;7.22;4.57;;;-0.70;68.90;;;;;;4980882;28;20038;-38
2022/03/12 04:46:34;;;;;;;8.30;5.03;;;-0.70;70.10;;;;;;4998115;28;20033;-38
2022/03/12 04:49:01;;;;;;;9.98;5.18;;;-0.80;70.60;;;;;;4988199;28;20269;-38
2022/03/12 04:51:28;;;;;;;6.22;4.40;;;-0.70;70.70;;;;;;4987306;28;20025;-38
2022/03/12 04:53:58;;;;;;;7.05;3.95;;;-0.60;71.00;;;;;;4984343;28;20542;-37
2022/03/12 04:56:25;;;;;;;7.60;4.30;;;-0.60;70.40;;;;;;4969073;28;20061;-37
2022/03/12 04:58:53;;;;;;;4.47;3.67;;;-0.70;72.90;;;;;;4996755;28;20062;-37
2022/03/12 05:01:20;;;;;;;4.50;3.50;;;-0.70;73.20;;;;;;5003767;28;20435;-36
2022/03/12 05:03:46;;;;;;;6.78;4.43;;;-0.70;72.00;;;;;;5003796;28;20026;-37
2022/03/12 05:06:13;;;;;;;6.63;4.35;;;-0.70;73.80;;;;;;4999221;28;20554;-37
2022/03/12 05:08:39;;;;;;;5.93;4.43;;;-0.60;75.40;;;;;;5005747;28;20034;-39
2022/03/12 05:11:05;;;;;;;11.63;4.38;;;-0.60;74.40;;;;;;5008294;28;20037;-38
2022/03/12 05:13:32;;;;;;;9.43;5.80;;;-0.60;74.00;;;;;;5008146;28;20037;-38
2022/03/12 05:16:07;;;;;;;7.50;4.53;;;-0.60;74.10;;;;;;4990950;28;20057;-39
2022/03/12 05:18:36;;;;;;;7.38;4.07;;;-0.80;76.20;;;;;;5001590;28;20045;-36
2022/03/12 05:21:02;;;;;;;;;;;-0.90;78.10;;;;;;5003741;28;20033;-39
2022/03/12 05:23:28;;;;;;;8.60;4.85;;;-1.00;84.80;;;;;;4986688;28;21344;-40
2022/03/12 05:25:54;;;;;;;7.25;4.80;;;-1.20;83.00;;;;;;5004827;28;20030;-39
2022/03/12 05:28:24;;;;;;;8.02;4.10;;;-1.20;82.50;;;;;;5007957;28;20025;-38
2022/03/12 05:30:52;;;;;;;8.18;5.05;;;-1.10;80.70;;;;;;4991561;28;20069;-38
2022/03/12 05:33:19;;;;;;;8.00;5.65;;;-1.00;78.80;;;;;;5001713;28;20452;-38
2022/03/12 05:35:46;;;;;;;9.45;5.65;;;-0.90;79.40;;;;;;4976201;28;20053;-39
2022/03/12 05:38:13;;;;;;;7.72;5.85;;;-0.90;77.80;;;;;;5007050;28;20364;-39
2022/03/12 05:40:40;;;;;;;14.73;5.03;;;-0.80;76.70;;;;;;4990516;28;20087;-36
2022/03/12 05:43:15;;;;;;;8.48;4.63;;;-0.90;75.90;;;;;;5006765;28;20030;-37
2022/03/12 05:45:46;;;;;;;9.85;5.70;;;-0.90;77.80;;;;;;5006860;28;20030;-38
2022/03/12 05:48:14;;;;;;;8.48;4.68;;;-1.10;80.00;;;;;;5007387;28;20022;-40
2022/03/12 05:50:42;;;;;;;5.53;4.05;;;-1.10;79.30;;;;;;4962714;28;20079;-37
2022/03/12 05:53:09;;;;;;;9.88;4.72;;;-1.10;78.60;;;;;;4985326;28;20050;-37
2022/03/12 05:55:38;;;;;;;9.13;4.45;;;-1.20;79.60;;;;;;5006318;28;20034;-36
2022/03/12 05:58:04;;;;;;;;;;;-1.00;82.10;;;;;;5003132;28;20038;-39
2022/03/12 06:00:32;;;;;;;4.10;3.75;;;-1.00;85.80;;;;;;5008676;28;19917;-37
2022/03/12 06:02:58;;;;;;;5.82;4.65;;;-0.90;82.80;;;;;;5006067;28;20481;-37
2022/03/12 06:05:24;;;;;;;5.05;4.18;;;-0.90;82.10;;;;;;4985321;28;20036;-36
2022/03/12 06:07:52;;;;;;;8.00;4.25;;;-1.10;83.20;;;;;;4989030;28;20450;-36
2022/03/12 06:10:23;;;;;;;6.70;4.82;;;-1.20;83.60;;;;;;5008781;28;20605;-38
2022/03/12 06:12:53;;;;;;;6.35;4.50;;;-1.00;82.70;;;;;;5004789;28;20029;-39
2022/03/12 06:15:22;;;;;;;7.88;4.10;;;-1.00;82.60;;;;;;5004012;28;20998;-37
2022/03/12 06:17:49;;;;;;;8.35;5.28;;;-1.00;82.00;;;;;;5007970;28;20132;-40
2022/03/12 06:20:17;;;;;;;10.05;5.20;;;-0.90;81.10;;;;;;5004242;28;20080;-36
2022/03/12 06:22:43;;;;;;;4.30;3.93;;;-1.00;82.40;;;;;;5005505;28;20018;-36
2022/03/12 06:25:12;;;;;;;8.85;4.75;;;-1.10;82.70;;;;;;5000255;28;20236;-39
2022/03/12 06:27:42;;;;;;;9.15;4.35;;;-1.10;82.10;;;;;;5000296;28;20030;-38
2022/03/12 06:30:11;;;;;;;7.45;4.35;;;-1.00;81.50;;;;;;4983379;28;20034;-40
2022/03/12 06:32:42;;;;;;;;;;;-1.00;83.50;;;;;;5007775;28;20463;-37
2022/03/12 06:35:09;;;;;;;6.50;4.47;;;-1.00;84.10;;;;;;5003045;28;19924;-38
2022/03/12 06:37:35;;;;;;;5.93;4.97;;;-1.00;88.00;;;;;;4987628;28;20449;-37
2022/03/12 06:40:01;;;;;;;10.32;5.32;;;-0.90;89.80;;;;;;4999568;28;20114;-39
2022/03/12 06:42:28;;;;;;;12.15;5.38;;;-0.90;92.30;;;;;;5000169;28;20029;-38
2022/03/12 06:44:55;;;;;;;6.80;4.75;;;-0.90;93.20;;;;;;5001787;28;20033;-38
2022/03/12 06:47:27;;;;;;;12.95;5.38;;;-0.90;93.70;;;;;;4990841;28;20172;-37
2022/03/12 06:49:54;;;;;;;6.82;4.35;;;-0.80;95.00;;;;;;4989281;28;20029;-38
2022/03/12 06:52:20;;;;;;;8.90;4.88;;;-0.70;92.80;;;;;;4996612;28;20030;-37
2022/03/12 06:54:46;;;;;;;7.28;4.57;;;-0.50;92.50;;;;;;5003915;28;20048;-36
2022/03/12 06:57:12;;;;;;;5.22;4.72;;;-0.40;93.70;;;;;;4990391;28;20030;-38
2022/03/12 06:59:39;;;;;;;5.53;4.18;;;-0.20;88.20;;;;;;5010332;28;20045;-36
2022/03/12 07:02:05;;;;;;;5.45;4.05;;;-0.10;85.00;;;;;;5007290;28;20418;-37
2022/03/12 07:04:31;;;;;;;10.20;5.00;;;0.00;84.70;;;;;;4984833;28;20030;-39
2022/03/12 07:06:57;;;;;;;7.50;5.70;;;0.10;82.20;;;;;;5004466;28;20434;-38
2022/03/12 07:09:22;;;;;;;7.95;4.60;;;0.20;82.10;;;;;;5000570;28;20026;-38
2022/03/12 07:11:48;;;;;;;6.90;4.65;;;0.30;78.50;;;;;;4999376;28;20514;-38
2022/03/12 07:14:14;;;;;;;9.35;5.47;;;0.40;76.50;;;;;;5005477;28;20037;-37
2022/03/12 07:16:40;;;;;;;7.10;4.15;;;0.40;71.70;;;;;;5004347;28;20443;-37
2022/03/12 07:19:06;;;;;;;6.00;4.63;;;0.50;71.40;;;;;;5008978;28;20116;-38
2022/03/12 07:21:33;;;;;;;9.35;5.20;;;0.60;67.90;;;;;;5007799;28;20047;-38
2022/03/12 07:23:58;;;;;;;8.90;5.05;;;0.70;68.40;;;;;;5005761;28;20030;-37
2022/03/12 07:26:24;;;;;;;10.05;5.20;;;0.70;70.20;;;;;;4999262;28;20030;-36
2022/03/12 07:28:50;;;;;;;5.80;4.28;;;0.80;69.70;;;;;;4990298;28;20036;-38
2022/03/12 07:31:16;;;;;;;10.52;6.50;;;0.90;67.30;;;;;;5009087;28;20056;-37
2022/03/12 07:33:42;;;;;;;9.20;4.97;;;1.00;67.20;;;;;;4988224;28;20032;-37
2022/03/12 07:36:08;;;;;;;9.25;5.25;;;1.00;65.60;;;;;;5005618;28;20029;-36
2022/03/12 07:38:34;;;;;;;8.73;5.50;;;1.00;63.00;;;;;;5002360;28;20036;-38
2022/03/12 07:41:00;;;;;;;7.72;5.50;;;1.00;64.60;;;;;;5008933;28;20033;-37
2022/03/12 07:43:26;;;;;;;9.30;5.00;;;1.00;62.20;;;;;;5007175;28;20080;-37
2022/03/12 07:45:51;;;;;;;10.60;5.32;;;1.10;62.10;;;;;;5002969;28;20025;-36
2022/03/12 07:48:17;;;;;;;6.55;4.88;;;1.10;64.80;;;;;;5005328;28;20034;-36
2022/03/12 07:50:44;;;;;;;10.85;6.07;;;1.20;67.10;;;;;;5005582;28;20076;-38
2022/03/12 07:53:12;;;;;;;11.32;5.15;;;1.30;67.10;;;;;;5002634;28;20437;-39
2022/03/12 07:55:39;;;;;;;9.32;5.43;;;1.30;66.40;;;;;;5003556;28;20036;-38
2022/03/12 07:58:05;;;;;;;9.90;5.22;;;1.40;68.40;;;;;;5004152;28;20065;-37
2022/03/12 08:00:31;;;;;;;13.50;5.78;;;1.40;64.10;;;;;;5006361;28;20680;-36
2022/03/12 08:02:58;;;;;;;6.93;4.68;;;1.40;60.10;;;;;;5001327;28;20111;-37
2022/03/12 08:05:25;;;;;;;8.60;5.13;;;1.40;64.10;;;;;;4983737;28;20118;-36
2022/03/12 08:07:56;;;;;;;9.98;5.40;;;1.50;62.90;;;;;;5007143;28;20113;-38
2022/03/12 08:10:22;;;;;;;9.70;5.97;;;1.60;61.30;;;;;;5007046;28;20064;-38
2022/03/12 08:12:49;;;;;;;8.35;5.35;;;1.80;62.50;;;;;;5002035;28;20455;-37
2022/03/12 08:15:17;;;;;;;7.80;4.97;;;1.80;59.40;;;;;;4982639;28;20057;-38
2022/03/12 08:17:44;;;;;;;7.63;5.57;;;1.90;60.20;;;;;;5003942;28;20049;-36
2022/03/12 08:20:10;;;;;;;16.15;5.80;;;2.00;61.00;;;;;;5001839;28;20101;-37
2022/03/12 08:22:39;;;;;;;13.65;5.32;;;2.30;60.90;;;;;;5003936;28;20030;-39
2022/03/12 08:25:07;;;;;;;12.88;5.80;;;2.30;60.50;;;;;;5004913;28;20415;-37
2022/03/12 08:27:35;;;;;;;8.27;5.15;;;2.40;58.10;;;;;;5004130;28;20026;-36
2022/03/12 08:30:00;;;;;;;9.32;5.43;;;2.50;59.30;;;;;;5007924;28;20026;-36
2022/03/12 08:32:26;;;;;;;10.10;6.35;;;2.70;58.70;;;;;;5001771;28;20155;-37
2022/03/12 08:34:52;;;;;;;8.55;4.82;;;2.80;57.10;;;;;;4987437;28;20039;-37
2022/03/12 08:37:18;;;;;;;9.95;6.00;;;3.00;56.70;;;;;;4988686;28;20045;-37
2022/03/12 08:39:44;;;;;;;8.57;5.55;;;3.10;54.50;;;;;;4999656;28;20018;-37
2022/03/12 08:42:10;;;;;;;6.70;5.03;;;3.10;55.00;;;;;;5005514;28;20100;-38
2022/03/12 08:44:37;;;;;;;9.63;6.32;;;3.20;55.90;;;;;;5005359;28;20026;-38
2022/03/12 08:47:04;;;;;;;12.18;6.80;;;3.30;54.60;;;;;;5009172;28;20064;-39
2022/03/12 08:49:30;;;;;;;10.10;6.07;;;3.30;52.60;;;;;;4986634;28;20045;-38
2022/03/12 08:51:56;;;;;;;11.70;6.07;;;3.30;54.90;;;;;;5009568;28;20487;-37
2022/03/12 08:54:22;;;;;;;9.73;5.70;;;3.40;54.40;;;;;;5008704;28;20080;-37
2022/03/12 08:56:47;;;;;;;8.93;5.75;;;3.60;54.10;;;;;;5005388;28;20045;-37
2022/03/12 08:59:13;;;;;;;9.57;5.70;;;3.60;52.80;;;;;;5011698;28;20447;-36
2022/03/12 09:01:41;;;;;;;13.00;6.18;;;3.70;58.70;;;;;;4989377;28;20026;-37
2022/03/12 09:04:07;;;;;;;10.00;6.53;;;4.00;55.20;;;;;;4991679;28;20483;-37
2022/03/12 09:06:33;;;;;;;9.73;5.93;;;4.30;54.30;;;;;;4991746;28;20025;-36
2022/03/12 09:08:59;;;;;;;10.32;6.03;;;4.40;53.90;;;;;;4996914;28;20034;-38
2022/03/12 09:11:26;;;;;;;12.90;6.20;;;4.30;51.80;;;;;;5005213;28;20093;-36
2022/03/12 09:13:53;;;;;;;14.75;6.60;;;4.40;53.80;;;;;;4991906;28;20399;-37
2022/03/12 09:16:19;;;;;;;11.02;5.70;;;4.50;52.00;;;;;;5005741;28;20025;-38
2022/03/12 09:18:44;;;;;;;12.65;7.57;;;4.40;50.40;;;;;;5005532;28;20045;-40
2022/03/12 09:21:11;;;;;;;12.82;6.60;;;4.50;52.10;;;;;;5006933;28;20022;-37
2022/03/12 09:23:37;;;;;;;8.00;5.82;;;4.70;52.50;;;;;;4988087;28;20082;-36
2022/03/12 09:26:05;;;;;;;11.90;6.80;;;4.70;50.40;;;;;;5007603;28;20022;-37
2022/03/12 09:28:31;;;;;;;11.13;6.95;;;4.90;52.10;;;;;;5001948;28;20030;-36
2022/03/12 09:30:56;;;;;;;12.70;6.95;;;4.90;52.90;;;;;;5009782;28;20104;-38
2022/03/12 09:33:22;;;;;;;10.88;7.05;;;5.00;51.90;;;;;;5006808;28;20396;-40
2022/03/12 09:35:50;;;;;;;13.13;6.90;;;5.20;51.50;;;;;;4988654;28;20038;-37
2022/03/12 09:38:16;;;;;;;14.65;7.40;;;5.40;50.10;;;;;;5007093;28;20044;-36
2022/03/12 09:40:43;;;;;;;12.13;6.65;;;5.30;50.90;;;;;;5006156;28;20026;-39
2022/03/12 09:43:10;;;;;;;16.17;6.93;;;5.50;52.10;;;;;;5010727;28;20148;-36
2022/03/12 09:45:37;;;;;;;14.25;7.00;;;5.50;51.80;;;;;;5008739;28;20064;-37
2022/03/12 09:48:03;;;;;;;11.07;6.88;;;5.60;51.30;;;;;;4985591;28;20026;-37
2022/03/12 09:50:29;;;;;;;15.27;6.93;;;5.70;51.60;;;;;;4999885;28;20028;-38
2022/03/12 09:52:55;;;;;;;10.32;6.57;;;5.80;51.10;;;;;;4991325;28;20022;-38
2022/03/12 09:55:21;;;;;;;12.50;7.65;;;5.90;51.10;;;;;;5009065;28;20014;-38
2022/03/12 09:57:48;;;;;;;11.10;7.30;;;6.00;51.40;;;;;;4997310;28;20515;-36
2022/03/12 10:00:16;;;;;;;13.55;8.02;;;6.00;51.10;;;;;;5010031;28;20026;-37
2022/03/12 10:02:42;;;;;;;17.95;7.85;;;6.10;52.20;;;;;;4987403;28;20030;-39
2022/03/12 10:05:12;;;;;;;13.60;7.60;;;6.10;50.40;;;;;;5006311;28;20057;-36
2022/03/12 10:07:39;;;;;;;12.68;7.25;;;6.30;50.30;;;;;;4993918;28;20041;-39
2022/03/12 10:10:06;;;;;;;12.00;7.53;;;6.20;49.90;;;;;;5010833;28;20030;-37
2022/03/12 10:12:32;;;;;;;12.52;6.95;;;6.20;51.20;;;;;;5011843;28;20085;-40
2022/03/12 10:14:58;;;;;;;13.73;8.30;;;6.30;52.00;;;;;;5010455;28;20137;-36
2022/03/12 10:17:23;;;;;;;16.58;8.02;;;6.40;52.60;;;;;;5010483;28;20046;-36
2022/03/12 10:19:49;;;;;;;14.02;7.13;;;6.50;49.80;;;;;;5006274;28;20463;-37
2022/03/12 10:22:16;;;;;;;14.50;7.90;;;6.50;52.00;;;;;;5002580;28;20092;-39
2022/03/12 10:24:42;;;;;;;16.50;7.32;;;6.70;51.60;;;;;;5003872;28;20956;-36
2022/03/12 10:27:08;;;;;;;9.95;7.55;;;6.80;50.10;;;;;;5006618;28;20034;-39
2022/03/12 10:29:34;;;;;;;12.52;8.13;;;6.90;50.30;;;;;;5007801;28;20037;-38
2022/03/12 10:32:24;;;;;;;15.55;6.97;;;7.00;49.90;;;;;;4999460;28;20037;-38
2022/03/12 10:34:52;;;;;;;10.32;6.60;;;7.00;48.20;;;;;;5000548;28;20554;-37
2022/03/12 10:37:20;;;;;;;19.27;8.20;;;7.20;48.40;;;;;;5006884;28;20029;-36
2022/03/12 10:39:46;;;;;;;14.32;7.35;;;7.20;47.80;;;;;;5001572;28;20033;-39
2022/03/12 10:42:13;;;;;;;15.05;7.80;;;7.20;49.10;;;;;;5001158;28;20080;-39
2022/03/12 10:44:40;;;;;;;14.13;7.45;;;7.40;47.90;;;;;;5003571;28;21803;-37
2022/03/12 10:47:23;;;;;;;12.85;7.22;;;7.50;49.70;;;;;;4997843;28;20025;-39
2022/03/12 10:50:00;;;;;;;13.93;7.30;;;7.60;46.20;;;;;;5003186;28;20458;-37
2022/03/12 10:52:28;;;;;;;14.55;7.78;;;7.60;48.30;;;;;;5009164;28;20504;-37
2022/03/12 10:54:54;;;;;;;15.70;8.10;;;7.70;46.60;;;;;;5009187;28;20038;-40
2022/03/12 10:57:20;;;;;;;14.90;8.45;;;7.70;47.30;;;;;;5004692;28;20343;-37
2022/03/12 10:59:45;;;;;;;15.45;7.97;;;7.80;48.40;;;;;;5010049;28;20021;-37
2022/03/12 11:02:11;;;;;;;12.77;7.90;;;7.90;47.80;;;;;;5005762;28;20116;-39
2022/03/12 11:04:38;;;;;;;16.20;7.85;;;8.00;47.70;;;;;;5005120;28;20036;-37
2022/03/12 11:07:25;;;;;;;14.80;7.75;;;7.80;45.70;;;;;;4982240;28;20542;-36
2022/03/12 11:09:52;;;;;;;16.50;7.90;;;7.90;48.30;;;;;;4997698;28;20041;-38
2022/03/12 11:12:35;;;;;;;13.70;6.80;;;7.90;47.40;;;;;;5003155;28;20120;-38
2022/03/12 11:15:10;;;;;;;13.55;7.55;;;8.20;47.90;;;;;;5000257;28;20057;-39
2022/03/12 11:17:44;;;;;;;14.98;7.28;;;8.10;47.10;;;;;;4999743;28;20511;-38
2022/03/12 11:20:16;;;;;;;10.75;6.43;;;8.30;48.40;;;;;;5001894;28;20030;-37
2022/03/12 11:22:41;;;;;;;10.63;5.32;;;8.30;47.00;;;;;;5001774;28;20065;-38
2022/03/12 11:25:12;;;;;;;9.50;6.68;;;8.30;46.10;;;;;;4996828;28;20571;-37
2022/03/12 11:27:38;;;;;;;12.50;6.55;;;8.40;48.50;;;;;;5007077;28;20103;-37
2022/03/12 11:30:10;;;;;;;13.57;7.38;;;8.50;47.00;;;;;;5004640;28;20064;-39
2022/03/12 11:32:45;;;;;;;13.90;7.40;;;8.50;47.50;;;;;;4999577;28;20056;-36
2022/03/12 11:35:15;;;;;;;11.45;7.05;;;8.50;46.60;;;;;;5003567;28;20065;-37
2022/03/12 11:37:42;;;;;;;12.75;7.82;;;8.70;47.30;;;;;;5000230;28;20173;-37
2022/03/12 11:40:17;;;;;;;11.95;7.80;;;8.80;48.60;;;;;;5001553;28;20033;-37
2022/03/12 11:42:42;;;;;;;13.70;8.27;;;8.80;47.30;;;;;;5005154;28;20032;-36
2022/03/12 11:45:18;;;;;;;12.05;6.70;;;8.80;43.90;;;;;;4999622;28;20034;-38
2022/03/12 11:47:45;;;;;;;15.15;6.70;;;8.80;47.20;;;;;;5001580;28;20060;-37
2022/03/12 11:50:18;;;;;;;13.60;6.35;;;8.90;46.70;;;;;;5004477;28;20041;-40
2022/03/12 11:52:45;;;;;;;9.80;6.15;;;9.10;46.40;;;;;;5000788;28;20091;-37
2022/03/12 11:55:18;;;;;;;11.75;6.72;;;9.00;46.30;;;;;;4997855;28;21634;-36
2022/03/12 11:57:46;;;;;;;13.10;6.75;;;9.20;48.50;;;;;;5001625;28;20030;-38
2022/03/12 12:00:30;;;;;;;14.32;6.93;;;9.30;46.00;;;;;;5002102;28;20026;-39
2022/03/12 12:02:57;;;;;;;15.68;8.02;;;9.20;44.80;;;;;;4999657;28;20494;-37
2022/03/12 12:05:25;;;;;;;13.82;7.30;;;9.20;45.70;;;;;;5003483;28;20056;-37
2022/03/12 12:07:51;;;;;;;18.25;7.78;;;9.20;44.00;;;;;;5002500;28;20481;-40
2022/03/12 12:10:29;;;;;;;13.20;7.55;;;9.20;45.50;;;;;;5006140;28;20391;-37
2022/03/12 12:12:55;;;;;;;13.83;7.17;;;9.30;45.50;;;;;;5002988;28;20037;-38
2022/03/12 12:15:33;;;;;;;13.60;7.45;;;9.40;44.10;;;;;;5003746;28;20645;-37
2022/03/12 12:18:03;;;;;;;12.10;6.82;;;9.50;48.00;;;;;;5001993;28;20038;-38
2022/03/12 12:20:30;;;;;;;14.00;9.32;;;9.70;44.60;;;;;;5000416;28;20034;-40
2022/03/12 12:23:01;;;;;;;14.73;7.57;;;9.70;43.90;;;;;;5007581;28;20040;-39
2022/03/12 12:25:34;;;;;;;17.70;9.18;;;9.70;45.70;;;;;;5007396;28;20026;-39
2022/03/12 12:28:00;;;;;;;16.23;7.88;;;9.60;42.70;;;;;;5003497;28;21287;-37
2022/03/12 12:30:43;;;;;;;14.40;8.18;;;9.60;42.30;;;;;;5006061;28;20034;-37
2022/03/12 12:33:23;;;;;;;15.27;7.68;;;9.60;44.80;;;;;;5002183;28;20022;-37
2022/03/12 12:36:16;;;;;;;15.75;8.57;;;9.70;44.70;;;;;;5007980;28;20034;-37
2022/03/12 12:39:07;;;;;;;13.35;7.05;;;9.70;44.40;;;;;;5004241;28;20040;-36
2022/03/12 12:41:58;;;;;;;13.75;8.35;;;9.80;44.50;;;;;;5007968;28;20398;-37
2022/03/12 12:44:33;;;;;;;17.00;8.25;;;9.90;45.30;;;;;;5003750;28;20038;-36
2022/03/12 12:47:02;;;;;;;17.13;7.82;;;9.80;42.30;;;;;;5006711;28;20491;-38
2022/03/12 12:49:43;;;;;;;16.70;8.63;;;10.00;44.50;;;;;;5004908;28;20046;-38
2022/03/12 12:52:10;;;;;;;14.35;8.25;;;10.00;45.40;;;;;;5003751;28;20045;-38